My Meet Scores
Natalie Matulis, Aerial Gymnastics Club - MyMeetScores.com
Top100 | Top Teams | Upcoming Meets | Completed Meets | Latest | Add Scores | Help| Support | Bookmark and Share

Natalie Matulis, Aerial Gymnastics Club
Personal Bests
LevelVault BarsBeamFloorAA
49.2009.525 9.5259.37536.825
59.1009.150 9.2508.92535.775
69.2759.550 9.5259.62537.400
Meet Scores
Date Meet Team Session Level Division Vault Bars Beam Floor AA
2019-03-15 Illinois State Championship Level 6,9,10 Aerial Gymnastics Club 9 6 Sr E 9.250 6T 9.425 3 9.200 12 9.525 5 37.400 3
2019-02-15 Women's Midwest Open Aerial Gymnastics Club 01 6 Senior A 9.000 7T 9.550 1 9.100 3 9.600 1 37.250 1
2019-01-19 2019 Hang 10.0 Invitational Aerial Gymnastics Club 1 6 13 & Over 8.725 3T 8.550 5 9.525 1 9.475 1 36.275 1
2019-01-11 St Jude Benefit Meet Aerial Gymnastics Club 2B 6 Sr B 8.850 3T 9.200 2 9.325 1 9.575 1T 36.950 1
2018-12-14 Hawaiian Pineapple Classic Aerial Gymnastics Club 1A 6 Ages13+ 8.850 4T 8.900 4 8.700 9T 9.625 1 36.075 4
2018-11-30 Ultimate Wish Classic Aerial Gymnastics Club 12 6 SR 9.275 2 9.125 1 9.350 4 9.525 2 37.275 1
2018-03-08 Level 4 & 5 State Infinity Gymnastics Academy 10 5 Sr B 9.100 7T 8.600 14T 9.200 6 8.875 13T 35.775 8
2018-03-02 2018 Flip'r Invitational Infinity Gymnastics Academy 3 5 Senior 8.750 14 8.400 11 8.875 10 8.925 5 34.950 9
2018-02-23 Kinetic Classic Infinity Gymnastics Academy 8 5 Older 8.600 54T 8.100 77 9.250 26T 8.850 70 34.800 68
2018-02-02 Chris Waller's Heart Of A Champion Invitational Infinity Gymnastics Academy 12H 5 Older 9.000 3 8.550 2 8.100 3 8.275 3T 33.925 3
2018-01-18 Circle Of Stars Gymnastics Invitational Infinity Gymnastics Academy D1 5 Sr A 8.850 8 7.850 13 7.150 15 8.775 8T 32.625 12
2018-01-12 St Jude Benefit Meet Infinity Gymnastics Academy 8A 5 SrA 8.900 6 9.150 4 8.300 9 8.800 7 35.150 6
2017-12-14 2017 Women's Hawaiian Pineapple Classic Infinity Gymnastics Academy 5B 5 12+ 8.900 6T 8.700 7 7.750 12T 8.550 6 33.900 8
2017-03-10 2017 Illinois Level 4 State Championships Infinity Gymnastics Academy 6 4 Jr E 8.725 12T 9.200 4 9.525 2 9.375 4 36.825 4
2017-02-24 Houston National Invitational - Ocean View Infinity Gymnastics Academy O07 4 SR A 9.200 4 9.425 6 8.950 6 8.900 8T 36.475 5
2017-02-10 IGI Chicago Style Gymnastics Meet Infinity Gymnastics Academy 612L 4 JrC 8.575 4 9.400 1 9.300 2 8.800 6 36.075 2
2017-01-28 Wisconsin Dells Gymnastics Vacation Classic - USAG Infinity Gymnastics Academy B7 4 Junior B 8.750 2 9.525 1T 9.050 4 8.925 3 36.250 1
2017-01-20 2017 Bravo Classic Infinity Gymnastics Academy 06B 4 11+yrs 8.750 5 9.225 11 9.050 6T 9.050 7T 36.075 5
2017-01-13 St Jude Benefit Meet Infinity Gymnastics Academy 4A 4 Sr A 8.625 3T 9.200 2 9.200 6T 9.025 6 36.050 3
2016-12-15 2016 Hawaiian Pineapple Sanction Infinity Gymnastics Academy 6A 4 Ages11+ 8.550 6T 9.200 4T 8.525 10 8.900 7T 35.175 6
2016-11-11 2016 Illinois Judges Cup Infinity Gymnastics Academy R3 4 10 Year Ol 8.750 2 9.225 1T 8.750 7T 8.825 6T 35.550 2
Get your scores on
a t-shirt, pin, or hoodie

Order by December 13

www.lazysuits.com